Time;durP1;ratioP1;P1;durP2;ratioP2;P2;SDS_P1;SDS_P2;PMS_P1;PMS_P2;Temp;Humidity;BMP_temperature;BMP_pressure;BME280_temperature;BME280_humidity;BME280_pressure;Samples;Min_cycle;Max_cycle;Signal;HPM_P1;HPM_P2
2022/03/14 00:02:10;;;;;;;18.13;15.00;;;;;;;-1.41;79.50;102701.47;5093425;28;20036;-70
2022/03/14 00:04:38;;;;;;;15.10;12.53;;;;;;;-1.73;79.95;102657.00;5093495;28;20031;-70
2022/03/14 00:07:04;;;;;;;16.17;13.10;;;;;;;-1.34;79.56;102723.06;5093256;28;20162;-71
2022/03/14 00:09:30;;;;;;;19.20;14.80;;;;;;;-1.32;79.45;102724.75;5093160;28;20250;-68
2022/03/14 00:11:57;;;;;;;19.00;14.70;;;;;;;-1.37;79.71;102718.78;5093015;28;20297;-66
2022/03/14 00:14:26;;;;;;;17.57;14.67;;;;;;;-1.58;80.44;102695.78;5093199;28;20042;-68
2022/03/14 00:16:52;;;;;;;21.33;13.20;;;;;;;-1.63;80.44;102695.91;5093189;28;20326;-71
2022/03/14 00:19:20;;;;;;;20.70;15.70;;;;;;;-1.51;80.27;102715.66;5091777;28;20351;-73
2022/03/14 00:21:46;;;;;;;19.40;13.77;;;;;;;-1.73;80.28;102691.81;5093096;28;20281;-71
2022/03/14 00:24:12;;;;;;;19.57;14.63;;;;;;;-1.56;80.22;102712.28;5092918;28;20258;-70
2022/03/14 00:26:39;;;;;;;20.37;16.13;;;;;;;-1.85;80.78;102667.72;5092867;28;20626;-69
2022/03/14 00:29:06;;;;;;;20.63;12.93;;;;;;;-1.65;80.55;102710.75;5093038;28;20257;-70
2022/03/14 00:31:31;;;;;;;16.67;12.77;;;;;;;-1.58;80.84;102717.56;5091462;28;20292;-69
2022/03/14 00:33:57;;;;;;;18.27;12.40;;;;;;;-1.61;80.21;102720.25;5092102;28;20713;-66
2022/03/14 00:36:25;;;;;;;18.33;13.33;;;;;;;-1.64;80.31;102712.47;5092855;28;20082;-70
2022/03/14 00:38:52;;;;;;;16.45;11.95;;;;;;;-1.66;80.56;102705.59;5092535;28;20502;-65
2022/03/14 00:41:17;;;;;;;13.70;11.67;;;;;;;-1.53;80.32;102727.88;5092761;28;20680;-71
2022/03/14 00:43:43;;;;;;;17.17;12.97;;;;;;;-1.65;80.59;102715.13;5092663;28;20345;-70
2022/03/14 00:46:09;;;;;;;23.40;13.60;;;;;;;-1.74;80.39;102703.13;5092859;28;20508;-68
2022/03/14 00:48:35;;;;;;;17.30;13.50;;;;;;;-1.56;80.40;102736.66;5092480;28;20721;-70
2022/03/14 00:51:03;;;;;;;17.67;13.83;;;;;;;-1.61;80.23;102730.69;5092487;28;20069;-66
2022/03/14 00:53:31;;;;;;;20.27;13.03;;;;;;;-1.56;80.18;102744.50;5092546;28;20258;-69
2022/03/14 00:55:58;;;;;;;15.80;12.47;;;;;;;-1.60;80.45;102742.84;5092568;28;20323;-66
2022/03/14 00:58:24;;;;;;;15.10;12.27;;;;;;;-1.60;80.14;102742.84;5092825;28;20254;-65
2022/03/14 01:00:49;;;;;;;19.67;13.50;;;;;;;-1.59;80.00;102748.94;5092654;28;20299;-69
2022/03/14 01:03:15;;;;;;;16.60;12.10;;;;;;;-1.82;80.50;102715.50;5092483;28;20165;-70
2022/03/14 01:05:41;;;;;;;17.70;12.23;;;;;;;-1.71;80.24;102744.88;5092300;28;20028;-68
2022/03/14 01:08:08;;;;;;;15.60;12.03;;;;;;;-1.70;80.10;102745.75;5092161;28;20114;-70
2022/03/14 01:10:35;;;;;;;18.73;12.73;;;;;;;-1.73;79.68;102754.50;5092405;28;20043;-69
2022/03/14 01:13:04;;;;;;;14.57;11.57;;;;;;;-1.85;80.52;102743.47;5092237;28;20290;-71
2022/03/14 01:15:32;;;;;;;16.13;11.77;;;;;;;-1.91;80.08;102741.84;5092601;28;20273;-69
2022/03/14 01:17:58;;;;;;;14.57;11.63;;;;;;;-2.15;80.80;102716.28;5092324;28;20264;-66
2022/03/14 01:20:25;;;;;;;16.67;11.50;;;;;;;-1.93;80.55;102759.31;5092254;28;20269;-67
2022/03/14 01:22:54;;;;;;;14.00;11.40;;;;;;;-2.01;80.70;102750.78;5092216;28;20816;-68
2022/03/14 01:25:20;;;;;;;16.67;11.65;;;;;;;-2.02;80.68;102769.97;5093359;28;20016;-68
2022/03/14 01:27:46;;;;;;;15.70;11.70;;;;;;;-2.23;81.22;102730.38;5096696;28;20032;-68
2022/03/14 01:30:12;;;;;;;19.30;12.13;;;;;;;-2.22;80.84;102746.88;5095198;28;20272;-69
2022/03/14 01:32:37;;;;;;;18.10;11.57;;;;;;;-2.25;80.72;102746.94;5091845;28;20123;-66
2022/03/14 01:35:03;;;;;;;15.47;11.20;;;;;;;-2.34;81.22;102745.38;5090853;28;20031;-70
2022/03/14 01:37:31;;;;;;;17.37;12.40;;;;;;;-2.36;81.02;102749.75;5090832;28;20023;-68
2022/03/14 01:39:56;;;;;;;20.52;13.93;;;;;;;-2.44;80.64;102751.69;5092255;28;20375;-63
2022/03/14 01:42:22;;;;;;;18.93;12.87;;;;;;;-2.44;81.56;102761.25;5092863;28;20031;-66
2022/03/14 01:44:48;;;;;;;21.00;13.27;;;;;;;-2.44;81.81;102782.97;5095237;28;20026;-66
2022/03/14 01:47:16;;;;;;;17.80;12.73;;;;;;;-2.40;81.69;102776.81;5096972;28;20024;-66
2022/03/14 01:49:43;;;;;;;19.88;14.95;;;;;;;-2.42;82.11;102781.19;5095967;28;20027;-71
2022/03/14 01:52:09;;;;;;;19.30;13.17;;;;;;;-2.57;81.83;102771.94;5096218;28;20040;-68
2022/03/14 01:54:35;;;;;;;19.17;13.30;;;;;;;-2.55;81.85;102769.31;5095815;28;20618;-67
2022/03/14 01:57:01;;;;;;;19.73;13.63;;;;;;;-2.39;82.15;102795.94;5095878;28;20107;-67
2022/03/14 01:59:29;;;;;;;20.27;14.30;;;;;;;-2.52;81.66;102769.25;5095991;28;20670;-68
2022/03/14 02:01:56;;;;;;;19.30;13.80;;;;;;;-2.44;81.56;102777.78;5095746;28;20073;-70
2022/03/14 02:04:22;;;;;;;24.13;16.57;;;;;;;-2.30;81.81;102796.63;5095711;28;20254;-70
2022/03/14 02:06:51;;;;;;;26.00;18.17;;;;;;;-2.36;81.12;102786.28;5095859;28;20250;-66
2022/03/14 02:09:17;;;;;;;;;;;;;;;-2.24;80.70;102795.66;5095818;28;20729;-68
2022/03/14 02:11:58;;;;;;;25.60;16.87;;;;;;;-2.28;81.62;102799.22;5095372;28;20004;-66
2022/03/14 02:14:24;;;;;;;22.70;14.85;;;;;;;-2.35;81.01;102800.19;5095516;28;20035;-65
2022/03/14 02:16:50;;;;;;;26.73;18.00;;;;;;;-2.38;81.25;102795.91;5095821;28;20050;-65
2022/03/14 02:19:16;;;;;;;23.10;15.88;;;;;;;-2.53;81.20;102783.19;5096788;28;20362;-68
2022/03/14 02:21:42;;;;;;;24.10;15.13;;;;;;;-2.49;80.85;102787.44;5097007;28;20119;-70
2022/03/14 02:24:09;;;;;;;21.67;15.03;;;;;;;-2.52;81.61;102775.31;5096091;28;20745;-65
2022/03/14 02:26:39;;;;;;;23.67;14.07;;;;;;;-2.50;81.03;102783.97;5095390;28;20254;-69
2022/03/14 02:29:08;;;;;;;23.83;14.13;;;;;;;-2.52;80.78;102796.19;5095188;28;20621;-68
2022/03/14 02:31:37;;;;;;;;;;;;;;;-2.43;80.65;102816.00;5094842;28;20628;-70
2022/03/14 02:34:08;;;;;;;17.42;10.88;;;;;;;-2.57;80.97;102797.16;5095370;28;19908;-71
2022/03/14 02:36:39;;;;;;;23.02;13.38;;;;;;;-2.53;81.40;102824.91;5093982;28;20032;-70
2022/03/14 02:39:07;;;;;;;21.85;14.70;;;;;;;-2.87;81.65;102772.50;5095599;28;20117;-63
2022/03/14 02:41:34;;;;;;;25.60;15.05;;;;;;;-2.75;81.08;102792.28;5098057;28;20052;-67
2022/03/14 02:44:01;;;;;;;25.10;14.32;;;;;;;-2.53;81.14;102827.53;5101265;28;20036;-69
2022/03/14 02:46:27;;;;;;;25.08;14.82;;;;;;;-2.64;81.47;102813.78;5102942;28;20110;-63
2022/03/14 02:48:52;;;;;;;26.93;15.80;;;;;;;-2.56;81.10;102831.06;5102213;28;20065;-61
2022/03/14 02:51:18;;;;;;;21.90;12.80;;;;;;;-2.68;81.00;102802.56;5103603;28;20028;-63
2022/03/14 02:53:43;;;;;;;24.63;16.50;;;;;;;-2.61;81.71;102816.34;5102682;28;20076;-68
2022/03/14 02:56:09;;;;;;;22.23;13.93;;;;;;;-2.62;80.92;102836.34;5100576;28;20031;-67
2022/03/14 02:58:38;;;;;;;23.73;14.37;;;;;;;-2.71;81.74;102812.19;5101968;28;20043;-63
2022/03/14 03:01:04;;;;;;;23.23;12.88;;;;;;;-2.63;82.28;102825.94;5100789;28;20024;-66
2022/03/14 03:03:30;;;;;;;21.40;14.02;;;;;;;-2.59;82.09;102830.25;5094885;28;20114;-65
2022/03/14 03:05:56;;;;;;;19.50;12.70;;;;;;;-2.75;81.27;102797.50;5094590;28;20028;-69
2022/03/14 03:08:22;;;;;;;21.60;15.10;;;;;;;-2.57;81.69;102825.88;5094582;28;20308;-68
2022/03/14 03:10:48;;;;;;;21.63;13.90;;;;;;;-2.53;81.34;102837.97;5094259;28;20467;-69
2022/03/14 03:13:15;;;;;;;21.35;13.50;;;;;;;-2.64;81.22;102816.41;5094457;28;20285;-66
2022/03/14 03:15:40;;;;;;;21.23;13.55;;;;;;;-2.51;81.18;102828.34;5095259;28;20031;-68
2022/03/14 03:18:06;;;;;;;22.03;13.10;;;;;;;-2.53;81.51;102825.78;5096128;28;20027;-65
2022/03/14 03:20:32;;;;;;;23.03;14.57;;;;;;;-2.54;81.33;102817.97;5093353;28;20076;-67
2022/03/14 03:22:57;;;;;;;22.73;14.70;;;;;;;-2.59;81.12;102809.38;5094184;28;20032;-69
2022/03/14 03:25:24;;;;;;;20.90;14.45;;;;;;;-2.58;81.26;102816.31;5094119;28;20043;-68
2022/03/14 03:27:49;;;;;;;22.10;15.67;;;;;;;-2.60;81.18;102810.28;5094362;28;20028;-68
2022/03/14 03:30:15;;;;;;;22.00;14.63;;;;;;;-2.63;81.16;102818.13;5094231;28;20027;-66
2022/03/14 03:32:41;;;;;;;21.13;13.93;;;;;;;-2.60;81.74;102824.19;5093985;28;20089;-66
2022/03/14 03:35:07;;;;;;;22.48;16.15;;;;;;;-2.65;81.34;102804.25;5094266;28;20087;-68
2022/03/14 03:37:33;;;;;;;18.55;13.65;;;;;;;-2.61;81.65;102817.22;5093977;28;20487;-65
2022/03/14 03:39:58;;;;;;;21.87;14.33;;;;;;;-2.63;81.22;102808.56;5093872;28;20128;-66
2022/03/14 03:42:24;;;;;;;23.13;14.40;;;;;;;-2.63;81.20;102812.91;5093828;28;20030;-69
2022/03/14 03:44:49;;;;;;;21.17;14.67;;;;;;;-2.88;81.70;102771.66;5094365;28;20031;-67
2022/03/14 03:47:15;;;;;;;22.63;13.90;;;;;;;-2.57;81.72;102823.25;5100079;28;20028;-65
2022/03/14 03:49:40;;;;;;;23.77;15.93;;;;;;;-2.52;81.02;102829.25;5100727;28;20470;-69
2022/03/14 03:52:07;;;;;;;26.83;15.97;;;;;;;-2.52;81.06;102824.88;5099716;28;20108;-64
2022/03/14 03:54:33;;;;;;;20.80;15.57;;;;;;;-2.42;80.76;102838.59;5099600;28;20051;-65
2022/03/14 03:56:58;;;;;;;25.30;16.93;;;;;;;-2.54;81.33;102818.84;5080976;28;20016;-66
2022/03/14 03:59:24;;;;;;;22.97;15.97;;;;;;;-2.43;81.03;102836.03;5099760;28;20035;-67
2022/03/14 04:01:50;;;;;;;23.77;16.90;;;;;;;-2.51;80.77;102818.78;5097606;28;20119;-63
2022/03/14 04:04:16;;;;;;;23.58;16.75;;;;;;;-2.48;80.74;102830.91;5096115;28;20066;-63
2022/03/14 04:06:42;;;;;;;21.17;15.53;;;;;;;-2.44;81.07;102848.22;5098517;28;20024;-70
2022/03/14 04:09:07;;;;;;;20.97;14.77;;;;;;;-2.51;81.06;102830.97;5102688;28;20034;-69
2022/03/14 04:11:35;;;;;;;18.07;13.33;;;;;;;-2.51;81.07;102836.19;5109506;28;20047;-67
2022/03/14 04:14:01;;;;;;;23.75;15.18;;;;;;;-2.55;80.28;102831.91;5093386;28;20473;-66
2022/03/14 04:16:27;;;;;;;20.13;12.97;;;;;;;-2.53;80.80;102845.78;5093055;28;20031;-69
2022/03/14 04:18:54;;;;;;;20.42;14.45;;;;;;;-2.54;80.97;102849.28;5093216;28;20051;-70
2022/03/14 04:21:20;;;;;;;19.65;14.15;;;;;;;-2.50;80.99;102856.16;5093047;28;20375;-72
2022/03/14 04:23:46;;;;;;;20.27;14.17;;;;;;;-2.54;80.30;102865.78;5092919;28;20030;-72
2022/03/14 04:26:12;;;;;;;19.70;14.18;;;;;;;-2.62;80.97;102845.94;5091761;28;20122;-67
2022/03/14 04:28:40;;;;;;;21.73;15.70;;;;;;;-2.48;80.73;102880.47;5092699;28;20119;-70
2022/03/14 04:31:07;;;;;;;15.52;12.10;;;;;;;-2.45;80.46;102880.41;5091350;28;20036;-72
2022/03/14 04:33:33;;;;;;;21.48;14.85;;;;;;;-2.43;80.20;102883.84;5092885;28;20024;-70
2022/03/14 04:35:59;;;;;;;19.70;15.90;;;;;;;-2.44;80.06;102882.13;5092993;28;20081;-72
2022/03/14 04:38:26;;;;;;;23.05;15.63;;;;;;;-2.44;79.89;102871.69;5097721;28;20024;-65
2022/03/14 04:40:51;;;;;;;19.33;14.40;;;;;;;-2.40;80.73;102878.59;5092277;28;20467;-65
2022/03/14 04:43:17;;;;;;;19.53;14.10;;;;;;;-2.44;80.45;102887.34;5094005;28;20034;-66
2022/03/14 04:45:43;;;;;;;20.33;13.10;;;;;;;-2.37;79.88;102894.19;5094737;28;20024;-67
2022/03/14 04:48:09;;;;;;;20.48;14.15;;;;;;;-2.57;80.06;102865.00;5108246;28;20035;-67
2022/03/14 04:50:37;;;;;;;21.93;14.40;;;;;;;-2.35;80.30;102901.97;5112908;28;20424;-65
2022/03/14 04:53:06;;;;;;;26.25;16.85;;;;;;;-2.37;80.21;102901.16;5093243;28;20072;-65
2022/03/14 04:55:34;;;;;;;19.05;13.82;;;;;;;-2.38;80.14;102896.81;5092469;28;20020;-66
2022/03/14 04:58:00;;;;;;;29.37;15.67;;;;;;;-2.26;80.18;102907.91;5093317;28;20133;-66
2022/03/14 05:00:28;;;;;;;20.40;15.30;;;;;;;-2.18;79.91;102915.59;5112734;28;20275;-67
2022/03/14 05:03:03;;;;;;;23.10;15.17;;;;;;;-2.11;80.31;102914.59;5112503;28;20261;-66
2022/03/14 05:05:29;;;;;;;21.73;15.07;;;;;;;-2.16;79.71;102902.50;5112538;28;20271;-67
2022/03/14 05:07:55;;;;;;;24.87;15.67;;;;;;;-2.09;79.80;102904.09;5107601;28;20783;-65
2022/03/14 05:10:22;;;;;;;19.03;13.83;;;;;;;-1.99;79.57;102905.69;5112391;28;20081;-67
2022/03/14 05:12:49;;;;;;;24.10;16.23;;;;;;;-2.06;79.87;102891.00;5112302;28;20043;-67
2022/03/14 05:15:18;;;;;;;24.35;16.42;;;;;;;-2.00;79.53;102906.56;5101274;28;20339;-66
2022/03/14 05:17:47;;;;;;;25.52;16.67;;;;;;;-2.07;79.24;102891.88;5091869;28;20467;-66
2022/03/14 05:20:14;;;;;;;24.48;16.13;;;;;;;-2.27;80.00;102864.44;5091530;28;20483;-67
2022/03/14 05:22:44;;;;;;;23.63;18.77;;;;;;;-2.12;79.95;102878.91;5101410;28;20023;-67
2022/03/14 05:25:10;;;;;;;25.63;18.70;;;;;;;-1.90;80.09;102901.13;5112588;28;20258;-67
2022/03/14 05:27:39;;;;;;;22.65;15.95;;;;;;;-2.04;79.71;102850.03;5112003;28;20265;-67
2022/03/14 05:30:09;;;;;;;22.17;16.10;;;;;;;-1.74;78.61;102890.34;5112010;28;20114;-70
2022/03/14 05:32:42;;;;;;;25.45;18.55;;;;;;;-1.71;78.66;102885.94;5112058;28;20292;-67
2022/03/14 05:35:10;;;;;;;22.45;15.55;;;;;;;-1.68;78.72;102883.25;5112408;28;20482;-70
2022/03/14 05:37:36;;;;;;;25.75;16.95;;;;;;;-1.47;78.69;102909.81;5112120;28;20020;-68
2022/03/14 05:40:01;;;;;;;25.10;16.60;;;;;;;-1.45;78.02;102908.03;5093741;28;20030;-70
2022/03/14 05:42:27;;;;;;;22.47;16.67;;;;;;;-1.35;78.32;102913.03;5111609;28;20074;-67
2022/03/14 05:44:53;;;;;;;21.77;16.17;;;;;;;-1.54;78.01;102871.63;5112193;28;20024;-67
2022/03/14 05:47:19;;;;;;;20.57;14.47;;;;;;;-1.31;77.49;102898.13;5112060;28;20054;-69
2022/03/14 05:49:45;;;;;;;28.03;17.90;;;;;;;-1.16;77.23;102908.22;5112205;28;20357;-69
2022/03/14 05:52:11;;;;;;;29.03;17.07;;;;;;;-1.18;77.23;102894.34;5112136;28;20281;-67
2022/03/14 05:54:38;;;;;;;28.87;20.13;;;;;;;-1.01;77.16;102909.66;5112023;28;20262;-69
2022/03/14 05:57:04;;;;;;;32.17;22.00;;;;;;;-1.57;76.98;102821.16;5112003;28;20293;-67
2022/03/14 05:59:29;;;;;;;36.27;25.27;;;;;;;-0.97;76.58;102909.53;5110677;28;20403;-66
2022/03/14 06:01:55;;;;;;;30.73;21.90;;;;;;;-0.87;76.11;102923.25;5112022;28;20024;-69
2022/03/14 06:04:21;;;;;;;58.17;22.97;;;;;;;-1.13;76.17;102873.34;5111900;28;20028;-68
2022/03/14 06:06:47;;;;;;;28.27;20.40;;;;;;;-0.76;75.65;102929.09;5108596;28;20383;-67
2022/03/14 06:09:13;;;;;;;30.70;19.87;;;;;;;-0.73;75.28;102928.16;5110225;28;20257;-64
2022/03/14 06:11:39;;;;;;;43.33;27.77;;;;;;;-0.74;75.20;102923.81;5110236;28;20667;-66
2022/03/14 06:14:05;;;;;;;31.07;16.53;;;;;;;-0.71;74.91;102923.75;5111382;28;20036;-64
2022/03/14 06:16:31;;;;;;;23.80;16.50;;;;;;;-0.65;74.73;102932.31;5110771;28;20258;-65
2022/03/14 06:18:56;;;;;;;27.07;14.93;;;;;;;-0.70;74.50;102908.00;5112055;28;20503;-65
2022/03/14 06:21:22;;;;;;;24.30;15.60;;;;;;;-0.53;74.59;102933.78;5111561;28;20260;-67
2022/03/14 06:23:47;;;;;;;19.93;14.20;;;;;;;-0.58;74.16;102919.91;5111318;28;20028;-73
2022/03/14 06:26:14;;;;;;;24.30;14.60;;;;;;;-0.49;74.49;102934.56;5110462;28;20023;-66
2022/03/14 06:29:05;;;;;;;20.67;13.67;;;;;;;-0.40;73.73;102945.66;5111832;28;20485;-68
2022/03/14 06:31:31;;;;;;;20.50;13.67;;;;;;;-0.48;73.48;102934.50;5112220;28;20308;-68
2022/03/14 06:33:57;;;;;;;24.40;14.77;;;;;;;-0.42;73.92;102950.06;5115682;28;20261;-70
2022/03/14 06:36:23;;;;;;;26.07;14.47;;;;;;;-0.42;73.84;102950.06;5115589;28;20601;-68
2022/03/14 06:38:48;;;;;;;24.57;14.17;;;;;;;-0.43;73.66;102945.72;5115052;28;20031;-63
2022/03/14 06:41:14;;;;;;;26.03;16.63;;;;;;;-0.48;73.96;102931.91;5115133;28;20020;-65
2022/03/14 06:43:39;;;;;;;20.53;15.00;;;;;;;-0.36;73.86;102947.28;5113609;28;20019;-66
2022/03/14 06:46:05;;;;;;;23.43;16.73;;;;;;;-0.33;73.68;102944.59;5102076;28;20035;-68
2022/03/14 06:48:30;;;;;;;22.90;15.43;;;;;;;-0.25;73.94;102947.03;5115493;28;20031;-64
2022/03/14 06:50:56;;;;;;;36.67;18.20;;;;;;;-0.18;73.66;102939.88;5115342;28;20054;-68
2022/03/14 06:53:22;;;;;;;30.03;17.47;;;;;;;-0.17;73.00;102933.72;5114450;28;20023;-71
2022/03/14 06:55:47;;;;;;;23.57;15.03;;;;;;;-0.01;73.45;102958.59;5115325;28;20464;-67
2022/03/14 06:58:13;;;;;;;25.43;18.17;;;;;;;0.04;73.20;102963.72;5114980;28;20034;-68
2022/03/14 07:00:39;;;;;;;27.40;16.00;;;;;;;-0.04;72.94;102942.97;5115182;28;20102;-68
2022/03/14 07:03:05;;;;;;;26.20;15.27;;;;;;;0.16;72.65;102969.50;5115345;28;20093;-69
2022/03/14 07:05:30;;;;;;;27.47;16.27;;;;;;;0.16;72.41;102953.75;5113717;28;20289;-70
2022/03/14 07:07:56;;;;;;;25.00;15.70;;;;;;;0.25;72.49;102966.59;5115350;28;20110;-69
2022/03/14 07:10:24;;;;;;;24.03;14.90;;;;;;;0.35;72.16;102972.47;5116426;28;20085;-68
2022/03/14 07:12:51;;;;;;;25.83;15.37;;;;;;;0.32;72.05;102955.97;5115310;28;20474;-63
2022/03/14 07:15:21;;;;;;;23.17;14.47;;;;;;;0.35;71.19;102963.75;5118216;28;20261;-65
2022/03/14 07:17:47;;;;;;;21.47;13.23;;;;;;;0.30;71.20;102956.88;5115886;28;20020;-66
2022/03/14 07:20:13;;;;;;;25.13;13.33;;;;;;;0.10;71.04;102919.88;5118427;28;20262;-74
2022/03/14 07:23:00;;;;;;;23.20;14.83;;;;;;;0.41;70.83;102955.72;5119563;28;20262;-67
2022/03/14 07:25:42;;;;;;;19.20;13.43;;;;;;;0.50;71.13;102976.41;5114723;28;20736;-70
2022/03/14 07:28:09;;;;;;;18.37;13.83;;;;;;;0.48;70.73;102978.22;5113303;28;20265;-72
2022/03/14 07:30:36;;;;;;;20.23;12.77;;;;;;;0.49;71.17;102958.97;5114901;28;20285;-66
2022/03/14 07:33:02;;;;;;;20.10;12.27;;;;;;;0.57;70.93;102967.44;5115149;28;20281;-67
2022/03/14 07:35:29;;;;;;;25.17;13.03;;;;;;;0.52;70.48;102951.84;5115041;28;20349;-73
2022/03/14 07:37:55;;;;;;;18.43;13.47;;;;;;;0.64;70.63;102966.41;5113474;28;20081;-72
2022/03/14 07:40:21;;;;;;;20.60;13.40;;;;;;;0.12;70.90;102868.28;5114635;28;20600;-69
2022/03/14 07:42:49;;;;;;;18.53;14.77;;;;;;;0.78;70.63;102972.06;5112944;28;20027;-72
2022/03/14 07:45:16;;;;;;;28.63;15.98;;;;;;;0.79;70.90;102960.69;5116181;28;20030;-72
2022/03/14 07:47:43;;;;;;;20.57;13.50;;;;;;;0.83;70.85;102951.81;5114440;28;20028;-73
2022/03/14 07:50:11;;;;;;;24.70;13.97;;;;;;;0.95;70.68;102953.22;5114343;28;20771;-77
2022/03/14 07:52:38;;;;;;;23.17;14.97;;;;;;;1.06;70.36;102955.50;5114508;28;20289;-69
2022/03/14 07:55:06;;;;;;;23.23;14.60;;;;;;;0.92;70.02;102920.06;5114228;28;20254;-70
2022/03/14 07:57:34;;;;;;;36.67;18.02;;;;;;;1.22;69.86;102960.22;5112653;28;20717;-74
2022/03/14 08:00:00;;;;;;;26.10;14.67;;;;;;;1.24;69.84;102957.56;5098942;28;20038;-71
2022/03/14 08:02:26;;;;;;;23.03;15.57;;;;;;;1.37;69.54;102974.63;5096971;28;20356;-71
2022/03/14 08:04:52;;;;;;;30.27;15.83;;;;;;;1.44;69.24;102973.50;5094732;28;20250;-69
2022/03/14 08:07:18;;;;;;;25.67;14.50;;;;;;;1.54;68.94;102982.81;5092240;28;20323;-71
2022/03/14 08:09:50;;;;;;;20.03;14.43;;;;;;;1.60;69.01;102975.63;5093542;28;20039;-71
2022/03/14 08:12:17;;;;;;;30.33;14.60;;;;;;;1.58;68.31;102966.94;5093606;28;20293;-67
2022/03/14 08:14:47;;;;;;;24.07;14.93;;;;;;;1.70;68.19;102979.66;5091805;28;20741;-68
2022/03/14 08:17:13;;;;;;;22.53;14.87;;;;;;;1.73;68.32;102975.16;5093027;28;20286;-68
2022/03/14 08:19:39;;;;;;;24.53;13.80;;;;;;;1.70;68.41;102964.75;5093444;28;20293;-66
2022/03/14 08:22:04;;;;;;;22.00;14.40;;;;;;;1.76;67.92;102971.59;5092896;28;20259;-68
2022/03/14 08:24:30;;;;;;;31.20;15.87;;;;;;;1.77;67.92;102974.19;5091703;28;20024;-70
2022/03/14 08:26:56;;;;;;;21.50;14.47;;;;;;;1.89;67.73;102986.03;5093070;28;20428;-72
2022/03/14 08:29:22;;;;;;;23.13;14.37;;;;;;;1.95;67.70;102983.19;5092978;28;20024;-73
2022/03/14 08:31:48;;;;;;;20.90;13.27;;;;;;;1.89;67.43;102965.00;5091431;28;20852;-77
2022/03/14 08:34:14;;;;;;;25.07;14.23;;;;;;;2.10;67.31;102982.66;5074658;28;20115;-74
2022/03/14 08:36:40;;;;;;;21.67;15.37;;;;;;;2.16;66.96;102987.69;5092892;28;20089;-74
2022/03/14 08:39:08;;;;;;;21.93;14.87;;;;;;;2.22;67.18;102985.75;5092890;28;20088;-65
2022/03/14 08:41:36;;;;;;;33.75;15.25;;;;;;;2.22;67.02;102967.34;5092627;28;20250;-69
2022/03/14 08:44:05;;;;;;;25.52;14.48;;;;;;;2.27;66.42;102968.91;5092447;28;20418;-71
2022/03/14 08:46:32;;;;;;;21.20;14.65;;;;;;;2.35;66.27;102980.03;5092717;28;20171;-73
2022/03/14 08:48:58;;;;;;;18.70;13.00;;;;;;;2.40;66.45;102985.09;5105713;28;20031;-65
2022/03/14 08:51:25;;;;;;;31.23;15.73;;;;;;;2.53;66.39;102996.03;5113054;28;20260;-71
2022/03/14 08:53:51;;;;;;;25.00;14.57;;;;;;;2.47;66.22;102982.19;5112251;28;20031;-68
2022/03/14 08:56:17;;;;;;;26.47;14.07;;;;;;;2.65;65.79;102987.69;5112764;28;20250;-68
2022/03/14 08:58:42;;;;;;;23.83;14.50;;;;;;;2.65;65.21;102988.56;5112995;28;20716;-69
2022/03/14 09:01:11;;;;;;;31.00;15.13;;;;;;;2.72;65.40;102990.03;5112823;28;20024;-73
2022/03/14 09:03:37;;;;;;;26.70;15.50;;;;;;;2.79;64.96;102996.78;5111726;28;20039;-70
2022/03/14 09:06:04;;;;;;;21.43;14.40;;;;;;;2.86;65.21;102996.53;5113022;28;20029;-70
2022/03/14 09:08:30;;;;;;;22.33;14.50;;;;;;;2.85;64.65;102979.03;5112745;28;20296;-72
2022/03/14 09:11:00;;;;;;;24.93;13.83;;;;;;;2.96;64.51;102993.50;5112819;28;20281;-73
2022/03/14 09:13:28;;;;;;;28.40;14.63;;;;;;;3.02;64.32;103000.31;5112347;28;20596;-72
2022/03/14 09:15:55;;;;;;;25.90;13.60;;;;;;;2.97;64.34;102989.09;5112527;28;20315;-70
2022/03/14 09:18:21;;;;;;;25.40;13.47;;;;;;;3.10;63.67;103000.88;5112671;28;20301;-67
2022/03/14 09:20:48;;;;;;;18.50;12.53;;;;;;;2.43;63.74;102879.78;5112396;28;20293;-71
2022/03/14 09:23:13;;;;;;;21.27;14.17;;;;;;;3.20;63.64;102996.97;5112404;28;20034;-69
2022/03/14 09:25:39;;;;;;;25.37;14.57;;;;;;;3.31;63.71;102992.13;5112526;28;20254;-70
2022/03/14 09:28:05;;;;;;;32.93;13.87;;;;;;;3.21;62.20;102884.59;5111823;28;20028;-66
2022/03/14 09:30:30;;;;;;;27.00;12.03;;;;;;;4.14;60.82;102976.34;5112230;28;20055;-68
2022/03/14 09:32:57;;;;;;;26.90;13.43;;;;;;;4.30;60.41;102994.97;5110809;28;20039;-71
2022/03/14 09:35:24;;;;;;;21.23;13.20;;;;;;;4.08;60.87;102976.63;5112161;28;20353;-69
2022/03/14 09:37:51;;;;;;;26.60;12.80;;;;;;;3.83;61.60;102961.00;5112211;28;20028;-69
2022/03/14 09:40:22;;;;;;;21.07;11.90;;;;;;;3.91;61.05;102979.97;5112091;28;20261;-68
2022/03/14 09:42:51;;;;;;;23.73;12.53;;;;;;;3.93;61.03;102970.22;5112520;28;20289;-74
2022/03/14 09:45:19;;;;;;;22.10;12.90;;;;;;;4.01;61.02;102976.00;5112385;28;20716;-74
2022/03/14 09:47:48;;;;;;;29.83;13.23;;;;;;;4.09;61.54;102980.13;5112193;28;20360;-73
2022/03/14 09:50:15;;;;;;;;;;;;;;;4.25;61.39;102989.91;5111334;28;20035;-68
2022/03/14 09:52:42;;;;;;;22.27;12.93;;;;;;;4.27;61.04;102997.75;5111897;28;19951;-67
2022/03/14 09:55:10;;;;;;;31.33;14.63;;;;;;;4.33;60.75;102990.41;5111751;28;20744;-68
2022/03/14 09:57:38;;;;;;;;;;;;;;;4.45;62.21;102996.94;5112480;28;20265;-66
2022/03/14 10:00:06;;;;;;;26.10;13.00;;;;;;;4.43;60.93;102992.69;5112035;28;19939;-71
2022/03/14 10:02:36;;;;;;;29.42;14.60;;;;;;;4.17;60.71;102943.72;5111528;28;20736;-70
2022/03/14 10:05:06;;;;;;;28.57;14.13;;;;;;;4.47;60.80;102994.25;5112906;28;20455;-70
2022/03/14 10:07:34;;;;;;;25.97;15.33;;;;;;;4.40;60.79;102985.75;5115695;28;20383;-66
2022/03/14 10:09:59;;;;;;;31.93;12.87;;;;;;;4.51;61.22;102999.31;5114977;28;20284;-67
2022/03/14 10:12:25;;;;;;;24.53;14.30;;;;;;;4.62;60.97;102989.13;5115327;28;20343;-69
2022/03/14 10:14:51;;;;;;;31.90;14.67;;;;;;;4.66;60.24;102984.56;5115739;28;20047;-71
2022/03/14 10:17:17;;;;;;;22.57;13.87;;;;;;;4.64;60.56;102979.38;5115692;28;20038;-69
2022/03/14 10:19:56;;;;;;;23.47;14.07;;;;;;;4.73;60.58;102985.16;5114551;28;20047;-73
2022/03/14 10:22:22;;;;;;;27.00;13.80;;;;;;;4.69;60.33;102983.59;5114752;28;20032;-70
2022/03/14 10:24:48;;;;;;;26.37;13.60;;;;;;;4.71;60.15;102987.00;5115616;28;20364;-72
2022/03/14 10:27:18;;;;;;;27.87;14.30;;;;;;;4.66;60.40;102987.22;5115566;28;20249;-70
2022/03/14 10:29:48;;;;;;;33.40;15.63;;;;;;;4.69;60.57;102970.38;5115500;28;20352;-73
2022/03/14 10:32:37;;;;;;;25.27;14.57;;;;;;;4.93;60.03;103003.56;5115485;28;20293;-62
2022/03/14 10:35:07;;;;;;;22.10;13.67;;;;;;;4.91;60.09;102985.13;5114946;28;20722;-71
2022/03/14 10:37:35;;;;;;;27.07;15.00;;;;;;;4.92;59.47;103007.16;5115165;28;20625;-67
2022/03/14 10:40:06;;;;;;;27.03;14.70;;;;;;;4.80;60.29;102986.56;5115405;28;20266;-66
2022/03/14 10:42:38;;;;;;;24.47;14.27;;;;;;;4.46;60.47;102930.06;5115386;28;20787;-69
2022/03/14 10:45:15;;;;;;;21.23;12.90;;;;;;;4.80;60.79;103002.41;5114375;28;20361;-72
2022/03/14 10:47:52;;;;;;;19.33;12.23;;;;;;;4.73;60.92;102990.44;5115434;28;20624;-70
2022/03/14 10:50:31;;;;;;;15.53;11.57;;;;;;;4.74;60.77;102997.41;5115521;27;20359;-72
2022/03/14 10:53:10;;;;;;;16.90;10.47;;;;;;;4.81;60.73;103002.34;5114821;28;20296;-69
2022/03/14 10:55:47;;;;;;;23.63;12.57;;;;;;;4.81;61.04;103004.97;5114710;28;20729;-66
2022/03/14 10:58:17;;;;;;;25.73;12.77;;;;;;;4.79;60.96;103008.63;5115826;28;20035;-69
2022/03/14 11:01:04;;;;;;;27.63;13.07;;;;;;;4.88;60.86;102995.84;5115342;28;20262;-65
2022/03/14 11:03:32;;;;;;;16.70;11.87;;;;;;;4.85;60.68;102995.97;5114765;28;20269;-71
2022/03/14 11:06:06;;;;;;;22.30;12.97;;;;;;;4.82;61.04;103001.41;5115086;28;20744;-69
2022/03/14 11:08:39;;;;;;;18.00;10.53;;;;;;;4.91;60.39;103006.25;5113478;28;20264;-70
2022/03/14 11:12:54;;;;;;;20.67;11.77;;;;;;;4.76;60.23;102962.09;5111893;27;20331;-70
2022/03/14 11:15:20;;;;;;;18.13;12.13;;;;;;;5.03;60.41;103007.47;5110293;28;20609;-69
2022/03/14 11:17:46;;;;;;;22.17;13.27;;;;;;;5.00;60.58;103004.13;5110149;28;20265;-68